Tsiigehtchic, Canada
Current Conditions -  °F | °C
As of 7:00 AM on Friday 24 Oct 2014 (Local Time) from CYEV Reporting Station
Light Snow Light Snow  
Wind Chill: 12°   Ceiling: 5200
Heat Index: 12°   Visibility: 6mi
Dew Point: 10°   Wind: 0mph
Humidity: 92%   Direction: NA
Pressure: 29.82"   Gusts: NA
Location:  67.43°N, 133.75°W
Report Text: CYEV 241300Z 00000KT 6SM -SN FEW005 OVC052 M11/M12 A2982 RMK SF2SC6 SLP105
Loading
Personal Weather Stations






























Interactive Weather Map
Tropical Storm Tracking
New forecast layout! Learn more

10-Day Weather Forecast

Advertisements
Track Severe Weather on mobile